createdAt,value
2022-09-01T00:00:21.214Z,3.20
2022-09-01T00:01:21.203Z,3.40
2022-09-01T00:02:21.251Z,3.10
2022-09-01T00:03:21.217Z,3.20
2022-09-01T00:04:21.245Z,3.00
2022-09-01T00:05:21.161Z,3.10
2022-09-01T00:06:21.183Z,3.20
2022-09-01T00:07:21.177Z,2.70
2022-09-01T00:08:21.259Z,2.60
2022-09-01T00:09:21.130Z,2.20
2022-09-01T00:10:21.141Z,2.20
2022-09-01T00:11:21.122Z,2.30
2022-09-01T00:12:21.150Z,1.90
2022-09-01T00:13:21.102Z,2.20
2022-09-01T00:14:30.873Z,2.10
2022-09-01T00:15:22.093Z,2.40
2022-09-01T00:16:21.170Z,2.00
2022-09-01T00:17:21.101Z,2.30
2022-09-01T00:18:21.260Z,2.20
2022-09-01T00:19:21.051Z,2.40
2022-09-01T00:20:21.107Z,2.10
2022-09-01T00:21:21.070Z,1.90
2022-09-01T00:22:21.038Z,2.30
2022-09-01T00:23:21.026Z,2.10
2022-09-01T00:24:21.023Z,2.00
2022-09-01T00:25:21.003Z,2.00
2022-09-01T00:26:21.023Z,1.80
2022-09-01T00:27:21.001Z,1.80
2022-09-01T00:28:22.010Z,1.80
2022-09-01T00:29:21.970Z,1.80
2022-09-01T00:30:21.022Z,2.50
2022-09-01T00:31:21.024Z,1.90
2022-09-01T00:32:20.962Z,2.00
2022-09-01T00:33:20.938Z,1.60
2022-09-01T00:34:20.943Z,1.80
2022-09-01T00:35:21.072Z,1.80
2022-09-01T00:36:20.940Z,1.90
2022-09-01T00:37:20.947Z,1.80
2022-09-01T00:38:21.043Z,1.90
2022-09-01T00:39:20.919Z,1.70
2022-09-01T00:40:20.952Z,1.70
2022-09-01T00:41:20.900Z,2.00
2022-09-01T00:42:20.903Z,1.80
2022-09-01T00:43:20.901Z,1.80
2022-09-01T00:44:20.846Z,1.60
2022-09-01T00:45:20.886Z,1.60
2022-09-01T00:46:20.867Z,2.00
2022-09-01T00:47:20.900Z,1.60
2022-09-01T00:48:20.979Z,1.80
2022-09-01T00:49:20.832Z,1.60
2022-09-01T00:50:20.838Z,1.90
2022-09-01T00:51:20.812Z,1.60
2022-09-01T00:52:20.802Z,1.80
2022-09-01T00:53:20.762Z,1.90
2022-09-01T00:54:21.795Z,1.60
2022-09-01T00:55:20.788Z,2.00
2022-09-01T00:56:20.822Z,1.60
2022-09-01T00:57:20.775Z,2.10
2022-09-01T00:58:20.968Z,1.70
2022-09-01T00:59:20.747Z,1.60
2022-09-01T01:00:20.724Z,1.60
2022-09-01T01:01:20.767Z,1.70
2022-09-01T01:02:20.786Z,1.90
2022-09-01T01:03:20.704Z,1.70
2022-09-01T01:04:20.736Z,1.60
2022-09-01T01:05:20.731Z,1.70
2022-09-01T01:06:20.749Z,1.60
2022-09-01T01:07:20.693Z,1.60
2022-09-01T01:08:20.876Z,1.70
2022-09-01T01:09:20.655Z,1.50
2022-09-01T01:10:20.692Z,1.70
2022-09-01T01:11:20.627Z,1.60
2022-09-01T01:12:20.628Z,1.70
2022-09-01T01:13:20.622Z,1.60
2022-09-01T01:14:20.650Z,1.60
2022-09-01T01:15:20.653Z,1.50
2022-09-01T01:16:20.665Z,1.50
2022-09-01T01:17:20.608Z,1.60
2022-09-01T01:18:23.403Z,1.60
2022-09-01T01:19:20.591Z,1.70
2022-09-01T01:20:20.577Z,1.60
2022-09-01T01:21:20.625Z,1.60
2022-09-01T01:22:20.576Z,1.80
2022-09-01T01:23:20.579Z,1.60
2022-09-01T01:24:20.535Z,1.50
2022-09-01T01:25:20.548Z,1.60
2022-09-01T01:26:20.564Z,1.40
2022-09-01T01:27:20.521Z,1.80
2022-09-01T01:28:21.727Z,1.60
2022-09-01T01:29:20.521Z,1.70
2022-09-01T01:30:20.511Z,1.80
2022-09-01T01:31:20.607Z,1.80
2022-09-01T01:32:20.486Z,1.80
2022-09-01T01:33:20.522Z,1.50
2022-09-01T01:34:20.513Z,1.90
2022-09-01T01:35:20.483Z,1.70
2022-09-01T01:36:20.447Z,1.60
2022-09-01T01:37:20.478Z,1.90
2022-09-01T01:38:20.623Z,1.60
2022-09-01T01:39:20.474Z,1.90
2022-09-01T01:40:20.482Z,1.60
2022-09-01T01:41:20.479Z,1.90
2022-09-01T01:42:20.395Z,1.70
2022-09-01T01:43:20.439Z,1.70
2022-09-01T01:44:20.409Z,1.90
2022-09-01T01:45:20.395Z,2.00
2022-09-01T01:46:20.768Z,1.70
2022-09-01T01:47:20.372Z,1.70
2022-09-01T01:48:20.547Z,1.60
2022-09-01T01:49:20.379Z,1.30
2022-09-01T01:50:20.363Z,1.70
2022-09-01T01:51:20.356Z,1.80
2022-09-01T01:52:20.340Z,1.60
2022-09-01T01:53:21.325Z,1.60
2022-09-01T01:54:20.330Z,1.80
2022-09-01T01:55:20.330Z,1.40
2022-09-01T01:56:20.308Z,1.50
2022-09-01T01:57:20.272Z,1.90
2022-09-01T01:58:20.548Z,1.50
2022-09-01T01:59:20.319Z,1.60
2022-09-01T02:00:30.464Z,1.60
2022-09-01T02:01:21.267Z,1.50
2022-09-01T02:02:20.302Z,1.50
2022-09-01T02:03:20.258Z,1.90
2022-09-01T02:04:20.233Z,1.60
2022-09-01T02:05:20.244Z,1.70
2022-09-01T02:06:20.194Z,2.10
2022-09-01T02:07:20.207Z,1.90
2022-09-01T02:08:20.391Z,1.60
2022-09-01T02:09:20.191Z,1.50
2022-09-01T02:10:20.191Z,1.50
2022-09-01T02:11:20.206Z,1.70
2022-09-01T02:12:20.166Z,1.80
2022-09-01T02:13:20.161Z,1.50
2022-09-01T02:14:20.168Z,1.70
2022-09-01T02:15:20.199Z,1.60
2022-09-01T02:16:20.273Z,1.80
2022-09-01T02:17:20.147Z,1.60
2022-09-01T02:18:20.187Z,1.40
2022-09-01T02:19:20.109Z,1.70
2022-09-01T02:20:20.133Z,1.60
2022-09-01T02:21:20.098Z,1.80
2022-09-01T02:22:20.100Z,1.70
2022-09-01T02:23:20.104Z,1.90
2022-09-01T02:24:20.064Z,1.60
2022-09-01T02:25:20.119Z,1.50
2022-09-01T02:26:20.054Z,1.50
2022-09-01T02:27:20.071Z,1.50
2022-09-01T02:28:20.168Z,1.80
2022-09-01T02:29:20.044Z,1.50
2022-09-01T02:30:20.049Z,1.80
2022-09-01T02:31:20.003Z,1.60
2022-09-01T02:32:20.046Z,1.70
2022-09-01T02:33:20.000Z,1.80
2022-09-01T02:34:20.027Z,1.60
2022-09-01T02:35:19.972Z,1.60
2022-09-01T02:36:21.000Z,1.50
2022-09-01T02:37:19.976Z,1.60
2022-09-01T02:38:20.137Z,1.50
2022-09-01T02:39:19.978Z,1.80
2022-09-01T02:40:20.033Z,1.90
2022-09-01T02:41:19.929Z,1.60
2022-09-01T02:42:19.936Z,1.80
2022-09-01T02:43:19.913Z,1.70
2022-09-01T02:44:19.933Z,1.60
2022-09-01T02:45:19.887Z,1.60
2022-09-01T02:46:19.956Z,1.80
2022-09-01T02:47:19.869Z,1.80
2022-09-01T02:48:20.039Z,1.70
2022-09-01T02:49:19.929Z,2.10
2022-09-01T02:50:19.868Z,1.80
2022-09-01T02:51:19.855Z,1.70
2022-09-01T02:52:19.840Z,1.80
2022-09-01T02:53:19.840Z,1.70
2022-09-01T02:54:19.942Z,2.00
2022-09-01T02:55:19.843Z,1.90
2022-09-01T02:56:19.839Z,1.70
2022-09-01T02:57:20.825Z,1.60
2022-09-01T02:58:20.038Z,1.30
2022-09-01T02:59:19.793Z,1.70
2022-09-01T03:00:19.786Z,1.60
2022-09-01T03:01:19.907Z,1.70
2022-09-01T03:02:19.786Z,1.40
2022-09-01T03:03:19.780Z,2.00
2022-09-01T03:04:19.817Z,1.50
2022-09-01T03:05:19.781Z,1.60
2022-09-01T03:06:19.816Z,1.80
2022-09-01T03:07:19.757Z,1.70
2022-09-01T03:08:19.944Z,1.50
2022-09-01T03:09:19.719Z,1.70
2022-09-01T03:10:19.724Z,1.70
2022-09-01T03:11:19.734Z,1.60
2022-09-01T03:12:19.695Z,1.70
2022-09-01T03:13:19.715Z,1.30
2022-09-01T03:14:19.726Z,1.50
2022-09-01T03:15:19.692Z,1.80
2022-09-01T03:16:19.737Z,1.80
2022-09-01T03:17:19.697Z,1.40
2022-09-01T03:18:19.804Z,1.60
2022-09-01T03:19:19.660Z,1.50
2022-09-01T03:20:19.656Z,1.80
2022-09-01T03:21:19.635Z,1.70
2022-09-01T03:22:19.709Z,1.60
2022-09-01T03:23:19.708Z,1.70
2022-09-01T03:24:19.644Z,1.70
2022-09-01T03:25:19.642Z,1.50
2022-09-01T03:26:19.607Z,1.70
2022-09-01T03:27:19.618Z,1.80
2022-09-01T03:28:19.748Z,1.40
2022-09-01T03:29:19.584Z,1.40
2022-09-01T03:30:19.568Z,1.80
2022-09-01T03:31:19.771Z,1.40
2022-09-01T03:32:19.564Z,1.70
2022-09-01T03:33:19.568Z,1.60
2022-09-01T03:34:19.550Z,1.50
2022-09-01T03:35:19.565Z,1.50
2022-09-01T03:36:19.640Z,1.50
2022-09-01T03:37:19.520Z,1.70
2022-09-01T03:38:19.665Z,1.50
2022-09-01T03:39:19.502Z,1.30
2022-09-01T03:40:19.519Z,1.50
2022-09-01T03:41:19.524Z,1.70
2022-09-01T03:42:19.470Z,1.40
2022-09-01T03:43:19.475Z,1.60
2022-09-01T03:44:19.468Z,1.50
2022-09-01T03:45:19.507Z,1.70
2022-09-01T03:46:19.522Z,1.60
2022-09-01T03:47:19.492Z,1.60
2022-09-01T03:48:19.600Z,1.30
2022-09-01T03:49:19.430Z,1.50
2022-09-01T03:50:19.427Z,1.70
2022-09-01T03:51:19.417Z,1.50
2022-09-01T03:52:19.469Z,1.40
2022-09-01T03:53:19.393Z,1.40
2022-09-01T03:54:19.388Z,1.50
2022-09-01T03:55:19.397Z,1.50
2022-09-01T03:56:19.384Z,1.70
2022-09-01T03:57:19.418Z,1.60
2022-09-01T03:58:19.461Z,1.30
2022-09-01T03:59:19.348Z,1.40
2022-09-01T04:00:19.343Z,1.70
2022-09-01T04:01:19.393Z,1.50
2022-09-01T04:02:19.494Z,1.80
2022-09-01T04:03:19.360Z,1.50
2022-09-01T04:04:20.356Z,1.70
2022-09-01T04:05:19.349Z,1.60
2022-09-01T04:06:19.320Z,1.50
2022-09-01T04:07:19.436Z,1.40
2022-09-01T04:08:19.419Z,1.60
2022-09-01T04:09:19.319Z,1.70
2022-09-01T04:10:19.282Z,1.50
2022-09-01T04:11:19.270Z,1.70
2022-09-01T04:12:19.274Z,1.50
2022-09-01T04:13:19.249Z,1.70
2022-09-01T04:14:19.286Z,1.60
2022-09-01T04:15:19.272Z,1.50
2022-09-01T04:16:19.308Z,1.60
2022-09-01T04:17:19.219Z,1.70
2022-09-01T04:18:19.386Z,1.60
2022-09-01T04:19:19.250Z,1.90
2022-09-01T04:20:19.204Z,1.80
2022-09-01T04:21:19.187Z,1.50
2022-09-01T04:22:19.224Z,1.70
2022-09-01T04:23:19.182Z,1.60
2022-09-01T04:24:19.372Z,1.60
2022-09-01T04:25:19.187Z,1.70
2022-09-01T04:26:19.159Z,1.80
2022-09-01T04:27:19.151Z,1.70
2022-09-01T04:28:19.308Z,1.40
2022-09-01T04:29:19.182Z,1.80
2022-09-01T04:30:19.196Z,2.00
2022-09-01T04:31:19.179Z,1.60
2022-09-01T04:32:19.141Z,1.30
2022-09-01T04:33:19.136Z,1.30
2022-09-01T04:34:19.096Z,1.60
2022-09-01T04:35:19.160Z,1.60
2022-09-01T04:36:19.073Z,1.70
2022-09-01T04:37:19.086Z,1.70
2022-09-01T04:38:19.242Z,1.60
2022-09-01T04:39:19.075Z,1.80
2022-09-01T04:40:19.137Z,1.70
2022-09-01T04:41:19.030Z,1.60
2022-09-01T04:42:19.068Z,1.70
2022-09-01T04:43:19.025Z,1.70
2022-09-01T04:44:19.191Z,1.60
2022-09-01T04:45:20.798Z,1.50
2022-09-01T04:46:20.040Z,1.50
2022-09-01T04:47:19.016Z,1.50
2022-09-01T04:48:19.133Z,1.40
2022-09-01T04:49:19.011Z,1.50
2022-09-01T04:50:19.014Z,1.40
2022-09-01T04:51:18.983Z,1.50
2022-09-01T04:52:18.990Z,1.50
2022-09-01T04:53:19.001Z,1.40
2022-09-01T04:54:18.989Z,1.70
2022-09-01T04:55:18.944Z,1.60
2022-09-01T04:56:18.950Z,1.70
2022-09-01T04:57:18.981Z,1.70
2022-09-01T04:58:18.987Z,1.90
2022-09-01T04:59:18.960Z,1.60
2022-09-01T05:00:18.938Z,2.00
2022-09-01T05:01:18.967Z,1.70
2022-09-01T05:02:19.001Z,1.60
2022-09-01T05:03:18.929Z,1.90
2022-09-01T05:04:18.885Z,1.90
2022-09-01T05:05:18.885Z,2.40
2022-09-01T05:06:18.916Z,1.90
2022-09-01T05:07:18.975Z,1.80
2022-09-01T05:08:23.913Z,1.50
2022-09-01T05:09:19.886Z,1.70
2022-09-01T05:10:18.895Z,2.00
2022-09-01T05:11:18.974Z,2.00
2022-09-01T05:12:18.849Z,1.90
2022-09-01T05:13:18.860Z,2.20
2022-09-01T05:14:18.827Z,1.60
2022-09-01T05:15:18.815Z,1.80
2022-09-01T05:16:24.069Z,1.70
2022-09-01T05:17:20.791Z,2.10
2022-09-01T05:18:18.951Z,1.90
2022-09-01T05:19:18.810Z,2.00
2022-09-01T05:20:18.805Z,2.10
2022-09-01T05:21:18.774Z,1.50
2022-09-01T05:22:18.821Z,1.80
2022-09-01T05:23:18.754Z,1.90
2022-09-01T05:24:18.796Z,2.10
2022-09-01T05:25:18.790Z,1.90
2022-09-01T05:26:19.793Z,1.50
2022-09-01T05:27:18.716Z,1.80
2022-09-01T05:28:18.988Z,1.70
2022-09-01T05:29:18.706Z,1.70
2022-09-01T05:30:18.797Z,1.90
2022-09-01T05:31:18.712Z,2.00
2022-09-01T05:32:18.694Z,1.80
2022-09-01T05:33:21.660Z,1.80
2022-09-01T05:34:19.687Z,1.80
2022-09-01T05:35:18.697Z,2.00
2022-09-01T05:36:18.664Z,1.70
2022-09-01T05:37:18.653Z,1.80
2022-09-01T05:38:18.859Z,1.70
2022-09-01T05:39:18.639Z,1.80
2022-09-01T05:40:18.699Z,1.80
2022-09-01T05:41:18.655Z,1.90
2022-09-01T05:42:18.610Z,1.90
2022-09-01T05:43:18.639Z,1.60
2022-09-01T05:44:18.604Z,2.20
2022-09-01T05:45:18.591Z,1.60
2022-09-01T05:46:18.640Z,1.90
2022-09-01T05:47:21.241Z,1.70
2022-09-01T05:48:18.752Z,1.80
2022-09-01T05:49:18.541Z,1.90
2022-09-01T05:50:18.598Z,1.80
2022-09-01T05:51:42.715Z,1.80
2022-09-01T05:52:20.523Z,1.70
2022-09-01T05:53:18.548Z,1.90
2022-09-01T05:54:18.526Z,1.90
2022-09-01T05:55:18.521Z,1.90
2022-09-01T05:56:18.504Z,1.70
2022-09-01T05:57:33.690Z,2.20
2022-09-01T05:58:20.612Z,1.80
2022-09-01T05:59:26.383Z,2.10
2022-09-01T06:00:20.449Z,1.70
2022-09-01T06:01:18.470Z,1.60
2022-09-01T06:02:18.538Z,1.80
2022-09-01T06:03:18.620Z,1.70
2022-09-01T06:04:18.432Z,1.90
2022-09-01T06:05:18.419Z,1.60
2022-09-01T06:06:18.429Z,1.70
2022-09-01T06:07:25.008Z,1.70
2022-09-01T06:08:19.569Z,1.40
2022-09-01T06:09:18.436Z,1.90
2022-09-01T06:10:18.424Z,1.40
2022-09-01T06:11:18.372Z,1.50
2022-09-01T06:12:18.887Z,1.70
2022-09-01T06:13:18.496Z,1.60
2022-09-01T06:14:18.353Z,1.80
2022-09-01T06:15:18.333Z,1.80
2022-09-01T06:16:18.444Z,1.90
2022-09-01T06:17:18.331Z,1.70
2022-09-01T06:18:19.381Z,1.80
2022-09-01T06:19:18.305Z,1.70
2022-09-01T06:20:18.360Z,1.50
2022-09-01T06:21:18.357Z,1.50
2022-09-01T06:22:18.334Z,1.40
2022-09-01T06:23:18.321Z,1.40
2022-09-01T06:24:18.273Z,1.70
2022-09-01T06:25:18.275Z,1.30
2022-09-01T06:26:18.287Z,1.50
2022-09-01T06:27:18.267Z,1.50
2022-09-01T06:28:18.275Z,1.60
2022-09-01T06:29:18.520Z,1.50
2022-09-01T06:30:23.099Z,1.60
2022-09-01T06:31:20.286Z,1.50
2022-09-01T06:32:18.283Z,1.60
2022-09-01T06:33:18.250Z,1.50
2022-09-01T06:34:18.308Z,1.30
2022-09-01T06:35:18.212Z,1.40
2022-09-01T06:36:18.239Z,1.40
2022-09-01T06:37:18.198Z,1.20
2022-09-01T06:38:18.186Z,1.80
2022-09-01T06:39:18.169Z,1.20
2022-09-01T06:40:19.232Z,1.30
2022-09-01T06:41:18.200Z,1.20
2022-09-01T06:42:18.195Z,1.30
2022-09-01T06:43:19.529Z,1.20
2022-09-01T06:44:18.143Z,1.30
2022-09-01T06:45:18.170Z,1.20
2022-09-01T06:46:18.142Z,1.20
2022-09-01T06:47:18.149Z,1.60
2022-09-01T06:48:18.153Z,1.20
2022-09-01T06:49:18.116Z,1.20
2022-09-01T06:51:14.768Z,1.40
2022-09-01T06:51:21.338Z,1.40
2022-09-01T06:52:19.078Z,1.30
2022-09-01T06:53:34.511Z,1.20
2022-09-01T06:54:21.256Z,1.20
2022-09-01T06:55:19.066Z,1.30
2022-09-01T06:56:18.066Z,1.30
2022-09-01T06:59:19.147Z,1.30
2022-09-01T07:00:19.191Z,1.30
2022-09-01T07:01:18.139Z,1.40
2022-09-01T07:02:18.184Z,1.40
2022-09-01T07:03:18.003Z,1.40
2022-09-01T07:04:18.019Z,1.40
2022-09-01T07:08:20.229Z,1.20
2022-09-01T07:09:20.283Z,1.10
2022-09-01T07:10:21.305Z,1.30
2022-09-01T07:12:07.540Z,1.30
2022-09-01T07:12:27.779Z,1.10
2022-09-01T07:13:19.940Z,1.30
2022-09-01T07:14:17.919Z,1.20
2022-09-01T07:16:38.538Z,1.10
2022-09-01T07:17:23.121Z,1.50
2022-09-01T07:18:19.014Z,1.50
2022-09-01T07:19:17.888Z,1.30
2022-09-01T07:20:25.446Z,1.20
2022-09-01T07:22:36.020Z,1.10
2022-09-01T07:23:19.869Z,1.40
2022-09-01T07:24:17.896Z,1.30
2022-09-01T07:25:17.856Z,1.40
2022-09-01T07:26:24.666Z,1.10
2022-09-01T07:27:19.852Z,1.30
2022-09-01T07:28:19.055Z,1.30
2022-09-01T07:29:17.901Z,1.30
2022-09-01T07:30:17.816Z,1.20
2022-09-01T07:35:19.791Z,1.30
2022-09-01T07:36:26.018Z,1.60
2022-09-01T07:43:19.998Z,1.40
2022-09-01T07:44:17.734Z,1.20
2022-09-01T07:45:33.149Z,1.40
2022-09-01T07:47:20.583Z,1.30
2022-09-01T07:50:08.490Z,1.50
2022-09-01T07:50:40.446Z,1.50
2022-09-01T07:51:37.003Z,1.50
2022-09-01T07:52:22.613Z,1.20
2022-09-01T07:53:17.689Z,1.40
2022-09-01T07:54:17.690Z,2.00
2022-09-01T07:55:17.652Z,1.30
2022-09-01T07:56:17.692Z,1.30
2022-09-01T07:57:17.636Z,1.40
2022-09-01T07:58:17.652Z,1.50
2022-09-01T07:59:17.700Z,1.90
2022-09-01T08:00:17.624Z,1.60
2022-09-01T08:01:17.755Z,1.50
2022-09-01T08:02:17.701Z,1.60
2022-09-01T08:03:17.676Z,1.50
2022-09-01T08:04:17.663Z,1.60
2022-09-01T08:05:17.594Z,1.50
2022-09-01T08:06:17.628Z,1.60
2022-09-01T08:07:17.573Z,1.50
2022-09-01T08:08:18.982Z,1.50
2022-09-01T08:09:32.895Z,1.50
2022-09-01T08:10:20.263Z,1.30
2022-09-01T08:11:25.259Z,1.60
2022-09-01T08:12:18.548Z,1.40
2022-09-01T08:13:20.819Z,1.50
2022-09-01T08:14:18.127Z,1.50
2022-09-01T08:16:19.610Z,1.40
2022-09-01T08:17:33.079Z,1.30
2022-09-01T08:18:19.817Z,1.40
2022-09-01T08:19:17.503Z,1.90
2022-09-01T08:20:17.708Z,1.50
2022-09-01T08:21:17.503Z,1.30
2022-09-01T08:22:17.514Z,1.70
2022-09-01T08:23:17.503Z,1.70
2022-09-01T08:24:17.501Z,1.20
2022-09-01T08:25:20.725Z,1.70
2022-09-01T08:26:18.484Z,1.50
2022-09-01T08:27:17.459Z,1.50
2022-09-01T08:28:26.565Z,1.70
2022-09-01T08:29:18.458Z,1.20
2022-09-01T08:30:17.439Z,1.60
2022-09-01T08:31:17.523Z,1.70
2022-09-01T08:32:17.458Z,1.30
2022-09-01T08:33:17.483Z,1.80
2022-09-01T08:34:17.441Z,1.90
2022-09-01T08:35:17.449Z,1.50
2022-09-01T08:36:21.546Z,1.70
2022-09-01T08:37:19.412Z,1.80
2022-09-01T08:38:17.415Z,1.40
2022-09-01T08:39:17.419Z,1.40
2022-09-01T08:40:17.531Z,1.50
2022-09-01T08:41:17.494Z,1.70
2022-09-01T08:42:17.361Z,1.50
2022-09-01T08:43:17.457Z,1.60
2022-09-01T08:44:17.346Z,1.50
2022-09-01T08:45:17.380Z,1.70
2022-09-01T08:46:17.482Z,1.30
2022-09-01T08:47:27.827Z,1.20
2022-09-01T08:49:25.114Z,1.50
2022-09-01T08:50:19.380Z,1.40
2022-09-01T08:51:20.741Z,1.60
2022-09-01T08:52:18.328Z,1.40
2022-09-01T08:53:17.366Z,1.60
2022-09-01T08:54:18.068Z,1.40
2022-09-01T08:55:18.387Z,1.40
2022-09-01T08:56:17.298Z,1.50
2022-09-01T08:57:17.313Z,1.60
2022-09-01T08:58:17.310Z,1.80
2022-09-01T08:59:17.272Z,1.50
2022-09-01T09:00:17.280Z,1.70
2022-09-01T09:01:17.774Z,1.50
2022-09-01T09:02:18.326Z,1.50
2022-09-01T09:03:17.281Z,1.60
2022-09-01T09:04:17.247Z,1.70
2022-09-01T09:05:17.324Z,1.20
2022-09-01T09:06:17.252Z,1.60
2022-09-01T09:07:17.222Z,2.00
2022-09-01T09:08:17.215Z,1.70
2022-09-01T09:09:32.331Z,1.50
2022-09-01T09:10:18.278Z,1.40
2022-09-01T09:11:17.186Z,1.80
2022-09-01T09:12:17.174Z,1.80
2022-09-01T09:13:17.319Z,1.90
2022-09-01T09:14:17.199Z,1.70
2022-09-01T09:15:17.200Z,1.50
2022-09-01T09:16:17.180Z,1.60
2022-09-01T09:17:17.477Z,1.50
2022-09-01T09:18:20.227Z,1.60
2022-09-01T09:19:18.180Z,1.70
2022-09-01T09:20:17.181Z,1.50
2022-09-01T09:21:17.132Z,1.50
2022-09-01T09:22:17.112Z,1.40
2022-09-01T09:23:17.477Z,1.30
2022-09-01T09:24:21.522Z,1.70
2022-09-01T09:25:22.457Z,1.60
2022-09-01T09:26:22.334Z,1.50
2022-09-01T09:27:19.113Z,1.70
2022-09-01T09:28:17.070Z,1.50
2022-09-01T09:29:17.114Z,1.50
2022-09-01T09:30:17.073Z,1.50
2022-09-01T09:31:18.609Z,1.30
2022-09-01T09:32:39.463Z,1.90
2022-09-01T09:33:54.330Z,1.70
2022-09-01T09:34:19.082Z,1.40
2022-09-01T09:35:17.011Z,1.90
2022-09-01T09:36:17.157Z,2.30
2022-09-01T09:37:17.088Z,2.00
2022-09-01T09:38:17.015Z,3.00
2022-09-01T09:39:17.067Z,2.70
2022-09-01T09:40:18.226Z,2.20
2022-09-01T09:41:18.881Z,1.90
2022-09-01T09:42:18.049Z,2.10
2022-09-01T09:43:17.021Z,1.80
2022-09-01T09:44:16.990Z,2.20
2022-09-01T09:45:17.054Z,2.40
2022-09-01T09:46:25.203Z,2.20
2022-09-01T09:47:42.294Z,2.00
2022-09-01T09:48:18.999Z,1.30
2022-09-01T09:49:16.978Z,1.50
2022-09-01T09:50:16.978Z,1.50
2022-09-01T09:51:17.007Z,1.50
2022-09-01T09:52:16.942Z,2.00
2022-09-01T09:53:16.959Z,1.90
2022-09-01T09:54:16.897Z,1.80
2022-09-01T09:55:16.999Z,1.30
2022-09-01T09:56:16.919Z,1.40
2022-09-01T09:57:16.940Z,1.60
2022-09-01T09:58:16.871Z,1.70
2022-09-01T09:59:25.339Z,1.30
2022-09-01T10:00:17.896Z,1.40
2022-09-01T10:01:17.725Z,1.70
2022-09-01T10:02:16.830Z,1.50
2022-09-01T10:03:16.855Z,1.70
2022-09-01T10:04:16.919Z,1.30
2022-09-01T10:05:16.821Z,1.40
2022-09-01T10:06:16.819Z,1.70
2022-09-01T10:07:16.843Z,1.30
2022-09-01T10:08:16.873Z,1.50
2022-09-01T10:09:16.833Z,1.50
2022-09-01T10:10:16.795Z,1.50
2022-09-01T10:11:16.862Z,1.30
2022-09-01T10:12:16.760Z,1.60
2022-09-01T10:13:16.852Z,1.70
2022-09-01T10:14:26.133Z,1.40
2022-09-01T10:15:18.772Z,1.90
2022-09-01T10:16:21.945Z,1.70
2022-09-01T10:17:17.880Z,1.50
2022-09-01T10:18:32.052Z,1.60
2022-09-01T10:19:18.753Z,1.30
2022-09-01T10:20:16.776Z,1.20
2022-09-01T10:21:16.781Z,1.40
2022-09-01T10:22:16.719Z,1.30
2022-09-01T10:23:16.948Z,1.40
2022-09-01T10:24:17.759Z,1.30
2022-09-01T10:25:17.670Z,1.30
2022-09-01T10:26:16.682Z,1.20
2022-09-01T10:27:16.696Z,1.50
2022-09-01T10:28:20.840Z,1.40
2022-09-01T10:29:17.706Z,1.70
2022-09-01T10:30:20.557Z,1.80
2022-09-01T10:31:17.845Z,1.30
2022-09-01T10:32:31.883Z,1.30
2022-09-01T10:33:20.937Z,1.70
2022-09-01T10:34:19.333Z,1.30
2022-09-01T10:35:18.246Z,1.30
2022-09-01T10:36:17.634Z,1.40
2022-09-01T10:37:16.639Z,1.40
2022-09-01T10:38:16.584Z,1.60
2022-09-01T10:39:17.253Z,1.30
2022-09-01T10:40:20.830Z,1.60
2022-09-01T10:41:17.573Z,1.50
2022-09-01T10:42:19.531Z,1.60
2022-09-01T10:43:17.555Z,1.70
2022-09-01T10:44:16.597Z,1.70
2022-09-01T10:45:16.624Z,1.40
2022-09-01T10:46:16.646Z,1.40
2022-09-01T10:47:16.593Z,1.50
2022-09-01T10:48:18.241Z,1.50
2022-09-01T10:49:17.821Z,1.40
2022-09-01T10:50:17.732Z,1.50
2022-09-01T10:51:19.302Z,1.90
2022-09-01T10:52:17.480Z,1.20
2022-09-01T10:53:17.302Z,1.20
2022-09-01T10:54:17.482Z,1.40
2022-09-01T10:55:24.028Z,1.30
2022-09-01T10:56:24.003Z,1.30
2022-09-01T10:57:18.449Z,1.10
2022-09-01T10:59:40.099Z,1.40
2022-09-01T11:01:40.532Z,1.40
2022-09-01T11:02:27.711Z,1.60
2022-09-01T11:03:41.045Z,1.90
2022-09-01T11:04:18.455Z,1.40
2022-09-01T11:05:16.741Z,1.60
2022-09-01T11:06:16.428Z,1.30
2022-09-01T11:07:16.410Z,1.20
2022-09-01T11:08:16.406Z,1.20
2022-09-01T11:09:16.357Z,1.30
2022-09-01T11:10:31.353Z,1.40
2022-09-01T11:11:18.459Z,1.30
2022-09-01T11:12:16.493Z,1.10
2022-09-01T11:13:16.378Z,1.20
2022-09-01T11:14:16.448Z,1.40
2022-09-01T11:15:16.986Z,1.40
2022-09-01T11:16:45.877Z,1.40
2022-09-01T11:17:17.389Z,1.40
2022-09-01T11:18:17.647Z,1.30
2022-09-01T11:19:16.371Z,1.80
2022-09-01T11:20:16.770Z,1.70
2022-09-01T11:21:16.310Z,1.70
2022-09-01T11:22:16.352Z,1.60
2022-09-01T11:23:16.307Z,1.50
2022-09-01T11:24:16.297Z,1.50
2022-09-01T11:25:17.332Z,1.70
2022-09-01T11:26:19.958Z,1.60
2022-09-01T11:27:17.294Z,1.80
2022-09-01T11:28:18.720Z,1.80
2022-09-01T11:29:16.244Z,1.80
2022-09-01T11:30:16.239Z,1.40
2022-09-01T11:31:16.294Z,1.30
2022-09-01T11:32:16.288Z,1.30
2022-09-01T11:33:16.230Z,1.30
2022-09-01T11:34:16.215Z,1.40
2022-09-01T11:35:16.212Z,1.70
2022-09-01T11:36:16.227Z,1.40
2022-09-01T11:37:16.190Z,1.30
2022-09-01T11:38:16.254Z,1.10
2022-09-01T11:39:16.226Z,1.30
2022-09-01T11:40:16.284Z,1.20
2022-09-01T11:41:16.158Z,1.20
2022-09-01T11:42:16.260Z,1.50
2022-09-01T11:43:16.706Z,1.20
2022-09-01T11:44:16.134Z,1.40
2022-09-01T11:45:21.740Z,1.20
2022-09-01T11:46:17.232Z,1.40
2022-09-01T11:47:16.119Z,1.30
2022-09-01T11:48:16.107Z,1.50
2022-09-01T11:49:16.115Z,1.40
2022-09-01T11:50:16.114Z,1.50
2022-09-01T11:51:16.092Z,1.60
2022-09-01T11:52:16.138Z,1.30
2022-09-01T11:53:16.113Z,1.40
2022-09-01T11:54:16.077Z,1.30
2022-09-01T11:55:16.091Z,1.20
2022-09-01T11:56:16.051Z,1.30
2022-09-01T11:57:16.068Z,1.20
2022-09-01T11:58:18.064Z,1.50
2022-09-01T11:59:17.036Z,1.30
2022-09-01T12:00:16.035Z,1.50
2022-09-01T12:01:16.006Z,1.60
2022-09-01T12:02:16.300Z,1.80
2022-09-01T12:03:16.212Z,1.70
2022-09-01T12:04:15.981Z,1.40
2022-09-01T12:05:15.994Z,1.80
2022-09-01T12:06:15.998Z,1.40
2022-09-01T12:07:15.979Z,1.20
2022-09-01T12:08:15.987Z,1.60
2022-09-01T12:09:16.001Z,1.70
2022-09-01T12:10:15.954Z,1.40
2022-09-01T12:11:15.952Z,1.30
2022-09-01T12:12:15.932Z,1.40
2022-09-01T12:13:15.950Z,1.50
2022-09-01T12:14:15.933Z,1.40
2022-09-01T12:15:16.019Z,1.30
2022-09-01T12:16:18.716Z,1.60
2022-09-01T12:17:16.960Z,1.50
2022-09-01T12:18:15.934Z,1.60
2022-09-01T12:19:15.905Z,1.50
2022-09-01T12:20:16.889Z,1.30
2022-09-01T12:21:16.897Z,1.40
2022-09-01T12:22:15.922Z,1.30
2022-09-01T12:23:15.845Z,1.70
2022-09-01T12:24:15.887Z,1.20
2022-09-01T12:25:16.000Z,1.30
2022-09-01T12:26:15.854Z,1.30
2022-09-01T12:27:15.818Z,1.30
2022-09-01T12:28:15.802Z,1.30
2022-09-01T12:29:15.857Z,1.30
2022-09-01T12:30:15.824Z,1.10
2022-09-01T12:31:15.827Z,1.40
2022-09-01T12:32:15.861Z,1.20
2022-09-01T12:33:23.951Z,1.30
2022-09-01T12:34:17.768Z,1.30
2022-09-01T12:35:15.791Z,1.40
2022-09-01T12:36:15.850Z,1.30
2022-09-01T12:37:15.764Z,1.30
2022-09-01T12:38:15.800Z,1.40
2022-09-01T12:39:15.769Z,1.30
2022-09-01T12:40:15.778Z,1.40
2022-09-01T12:41:17.124Z,1.30
2022-09-01T12:42:15.800Z,1.30
2022-09-01T12:43:15.994Z,1.30
2022-09-01T12:44:15.811Z,1.40
2022-09-01T12:45:15.747Z,1.40
2022-09-01T12:46:17.535Z,1.20
2022-09-01T12:47:16.719Z,1.00
2022-09-01T12:48:15.702Z,1.30
2022-09-01T12:50:16.933Z,1.20
2022-09-01T12:51:16.709Z,1.40
2022-09-01T12:52:16.157Z,1.40
2022-09-01T12:53:15.654Z,1.20
2022-09-01T12:54:15.642Z,1.20
2022-09-01T12:55:47.253Z,1.60
2022-09-01T12:56:17.909Z,1.20
2022-09-01T12:57:15.653Z,1.20
2022-09-01T12:58:15.694Z,1.00
2022-09-01T12:59:17.908Z,1.30
2022-09-01T13:00:15.613Z,1.20
2022-09-01T13:01:16.832Z,1.20
2022-09-01T13:02:16.714Z,1.20
2022-09-01T13:03:15.635Z,1.30
2022-09-01T13:04:15.580Z,1.30
2022-09-01T13:05:15.590Z,1.00
2022-09-01T13:06:15.908Z,1.40
2022-09-01T13:07:15.572Z,1.50
2022-09-01T13:08:15.600Z,1.60
2022-09-01T13:09:15.560Z,1.40
2022-09-01T13:10:15.530Z,1.20
2022-09-01T13:11:15.557Z,1.40
2022-09-01T13:12:15.635Z,1.20
2022-09-01T13:13:15.560Z,1.30
2022-09-01T13:14:15.549Z,1.30
2022-09-01T13:15:15.579Z,1.00
2022-09-01T13:16:15.605Z,1.50
2022-09-01T13:17:15.525Z,1.40
2022-09-01T13:18:15.539Z,1.40
2022-09-01T13:19:24.087Z,1.10
2022-09-01T13:20:17.547Z,1.60
2022-09-01T13:21:15.493Z,1.40
2022-09-01T13:22:15.477Z,1.40
2022-09-01T13:23:15.480Z,1.40
2022-09-01T13:24:15.538Z,1.30
2022-09-01T13:25:15.473Z,1.30
2022-09-01T13:26:15.445Z,1.10
2022-09-01T13:27:22.947Z,1.50
2022-09-01T13:28:17.502Z,1.40
2022-09-01T13:29:15.438Z,1.20
2022-09-01T13:30:15.489Z,1.20
2022-09-01T13:31:31.748Z,1.50
2022-09-01T13:32:19.582Z,1.30
2022-09-01T13:33:20.275Z,1.40
2022-09-01T13:34:22.377Z,1.20
2022-09-01T13:35:16.421Z,1.40
2022-09-01T13:37:17.425Z,1.40
2022-09-01T13:38:15.386Z,1.30
2022-09-01T13:39:15.648Z,1.30
2022-09-01T13:40:15.409Z,1.50
2022-09-01T13:41:15.397Z,1.20
2022-09-01T13:42:16.271Z,1.20
2022-09-01T13:43:15.675Z,1.40